createdAt,value
2018-05-07T00:01:26.875Z,2.67
2018-05-07T00:03:55.170Z,2.53
2018-05-07T00:06:23.497Z,2.23
2018-05-07T00:08:52.566Z,2.17
2018-05-07T00:11:20.877Z,2.87
2018-05-07T00:13:49.935Z,2.23
2018-05-07T00:16:18.241Z,2.50
2018-05-07T00:18:47.297Z,2.57
2018-05-07T00:21:15.615Z,2.13
2018-05-07T00:23:44.704Z,2.40
2018-05-07T00:26:12.996Z,2.53
2018-05-07T00:28:42.083Z,2.30
2018-05-07T00:31:11.137Z,2.90
2018-05-07T00:33:39.460Z,2.63
2018-05-07T00:36:08.510Z,2.50
2018-05-07T00:38:37.586Z,2.20
2018-05-07T00:41:05.882Z,2.70
2018-05-07T00:43:34.186Z,1.90
2018-05-07T00:46:02.481Z,2.10
2018-05-07T00:48:30.801Z,2.37
2018-05-07T00:50:59.098Z,2.60
2018-05-07T00:53:27.415Z,2.23
2018-05-07T00:55:56.471Z,2.43
2018-05-07T00:58:24.778Z,2.40
2018-05-07T01:00:53.075Z,2.37
2018-05-07T01:03:21.390Z,2.77
2018-05-07T01:05:49.673Z,2.33
2018-05-07T01:08:17.990Z,2.40
2018-05-07T01:10:46.281Z,2.37
2018-05-07T01:13:15.357Z,2.30
2018-05-07T01:15:43.654Z,2.30
2018-05-07T01:18:11.976Z,2.50
2018-05-07T01:20:40.266Z,2.33
2018-05-07T01:23:08.575Z,1.97
2018-05-07T01:25:37.674Z,2.40
2018-05-07T01:28:06.733Z,2.37
2018-05-07T01:30:35.058Z,2.73
2018-05-07T01:33:04.107Z,2.23
2018-05-07T01:35:32.439Z,2.70
2018-05-07T01:38:00.738Z,2.50
2018-05-07T01:40:29.066Z,2.40
2018-05-07T01:42:58.149Z,2.33
2018-05-07T01:45:26.463Z,2.90
2018-05-07T01:47:58.256Z,2.77
2018-05-07T01:50:26.571Z,2.93
2018-05-07T01:52:54.861Z,2.10
2018-05-07T01:55:23.933Z,2.37
2018-05-07T01:57:52.214Z,2.57
2018-05-07T02:00:20.529Z,2.27
2018-05-07T02:02:48.809Z,2.77
2018-05-07T02:05:17.132Z,2.97
2018-05-07T02:07:45.434Z,2.70
2018-05-07T02:10:14.480Z,2.70
2018-05-07T02:12:42.803Z,2.60
2018-05-07T02:15:11.076Z,3.07
2018-05-07T02:17:40.173Z,3.20
2018-05-07T02:20:08.462Z,2.70
2018-05-07T02:22:37.535Z,3.13
2018-05-07T02:25:10.851Z,2.40
2018-05-07T02:27:39.925Z,2.83
2018-05-07T02:30:08.208Z,2.60
2018-05-07T02:32:36.509Z,2.50
2018-05-07T02:35:04.790Z,2.47
2018-05-07T02:37:33.069Z,2.73
2018-05-07T02:40:01.380Z,2.70
2018-05-07T02:42:29.666Z,2.80
2018-05-07T02:44:57.964Z,2.60
2018-05-07T02:47:26.251Z,2.47
2018-05-07T02:49:54.571Z,2.73
2018-05-07T02:52:22.859Z,2.93
2018-05-07T02:54:51.168Z,2.27
2018-05-07T02:57:19.460Z,2.77
2018-05-07T02:59:47.761Z,2.80
2018-05-07T03:02:16.802Z,2.40
2018-05-07T03:04:45.118Z,2.60
2018-05-07T03:07:13.414Z,3.20
2018-05-07T03:09:42.478Z,2.30
2018-05-07T03:12:10.884Z,3.20
2018-05-07T03:14:39.838Z,2.57
2018-05-07T03:17:08.122Z,2.90
2018-05-07T03:19:36.442Z,2.90
2018-05-07T03:22:05.685Z,2.60
2018-05-07T03:24:33.975Z,2.90
2018-05-07T03:27:02.288Z,2.33
2018-05-07T03:29:30.565Z,2.27
2018-05-07T03:31:58.885Z,2.83
2018-05-07T03:34:27.175Z,2.70
2018-05-07T03:36:55.469Z,3.40
2018-05-07T03:39:23.769Z,2.80
2018-05-07T03:41:52.856Z,2.90
2018-05-07T03:44:21.896Z,3.23
2018-05-07T03:46:50.205Z,2.70
2018-05-07T03:49:18.497Z,2.67
2018-05-07T03:51:46.800Z,2.70
2018-05-07T03:54:15.095Z,2.67
2018-05-07T03:56:43.393Z,3.50
2018-05-07T03:59:11.686Z,2.97
2018-05-07T04:01:40.003Z,2.70
2018-05-07T04:04:09.059Z,2.93
2018-05-07T04:06:37.354Z,3.00
2018-05-07T04:09:05.657Z,2.90
2018-05-07T04:11:34.707Z,2.53
2018-05-07T04:14:03.030Z,2.67
2018-05-07T04:16:44.084Z,3.10
2018-05-07T04:19:25.064Z,2.87
2018-05-07T04:22:05.866Z,2.77
2018-05-07T04:24:34.940Z,2.60
2018-05-07T04:27:03.995Z,2.97
2018-05-07T04:29:32.300Z,3.70
2018-05-07T04:32:01.370Z,2.93
2018-05-07T04:34:29.680Z,3.27
2018-05-07T04:36:58.722Z,2.90
2018-05-07T04:39:27.799Z,2.87
2018-05-07T04:41:56.086Z,3.10
2018-05-07T04:44:24.389Z,2.67
2018-05-07T04:46:52.668Z,3.60
2018-05-07T04:49:20.966Z,3.07
2018-05-07T04:51:49.241Z,3.67
2018-05-07T04:54:17.555Z,3.17
2018-05-07T04:56:45.825Z,3.40
2018-05-07T04:59:14.133Z,3.20
2018-05-07T05:01:42.420Z,3.53
2018-05-07T05:04:10.737Z,2.63
2018-05-07T05:06:39.026Z,3.47
2018-05-07T05:09:08.097Z,3.57
2018-05-07T05:11:36.385Z,3.37
2018-05-07T05:14:05.494Z,2.87
2018-05-07T05:16:33.799Z,2.93
2018-05-07T05:19:02.081Z,2.57
2018-05-07T05:21:30.449Z,2.90
2018-05-07T05:23:58.691Z,2.53
2018-05-07T05:26:27.744Z,2.63
2018-05-07T05:28:56.026Z,2.87
2018-05-07T05:31:24.342Z,2.77
2018-05-07T05:33:53.389Z,2.23
2018-05-07T05:36:21.697Z,2.33
2018-05-07T05:38:49.980Z,3.60
2018-05-07T05:41:18.289Z,2.70
2018-05-07T05:43:46.691Z,2.77
2018-05-07T05:46:14.910Z,3.40
2018-05-07T05:48:43.208Z,2.47
2018-05-07T05:51:12.284Z,2.50
2018-05-07T05:53:40.607Z,2.40
2018-05-07T05:56:09.004Z,1.97
2018-05-07T05:58:37.218Z,2.13
2018-05-07T06:01:05.535Z,2.27
2018-05-07T06:03:33.808Z,2.80
2018-05-07T06:06:02.102Z,2.47
2018-05-07T06:08:30.413Z,2.53
2018-05-07T06:10:58.698Z,2.40
2018-05-07T06:13:27.009Z,2.33
2018-05-07T06:15:55.298Z,3.00
2018-05-07T06:18:23.615Z,2.50
2018-05-07T06:20:51.915Z,2.90
2018-05-07T06:23:20.222Z,3.03
2018-05-07T06:25:48.517Z,2.60
2018-05-07T06:28:16.827Z,2.40
2018-05-07T06:30:45.122Z,2.13
2018-05-07T06:33:13.421Z,2.30
2018-05-07T06:35:41.708Z,2.67
2018-05-07T06:38:10.031Z,2.33
2018-05-07T06:40:38.316Z,2.17
2018-05-07T06:43:06.621Z,2.20
2018-05-07T06:45:35.739Z,2.20
2018-05-07T06:48:04.011Z,2.40
2018-05-07T06:50:32.286Z,2.00
2018-05-07T06:53:00.582Z,1.73
2018-05-07T06:55:28.893Z,2.20
2018-05-07T06:57:57.189Z,2.17
2018-05-07T07:00:25.519Z,2.73
2018-05-07T07:02:53.875Z,2.43
2018-05-07T07:05:22.154Z,2.40
2018-05-07T07:07:50.436Z,2.80
2018-05-07T07:10:18.743Z,3.07
2018-05-07T07:12:47.047Z,2.90
2018-05-07T07:15:15.361Z,2.73
2018-05-07T07:17:43.645Z,2.83
2018-05-07T07:20:11.946Z,2.70
2018-05-07T07:22:40.238Z,2.30
2018-05-07T07:25:08.558Z,2.30
2018-05-07T07:27:37.618Z,2.93
2018-05-07T07:30:05.921Z,2.27
2018-05-07T07:32:34.989Z,3.00
2018-05-07T07:35:03.296Z,2.90
2018-05-07T07:37:31.607Z,2.60
2018-05-07T07:39:59.889Z,2.20
2018-05-07T07:42:28.970Z,2.90
2018-05-07T07:44:57.257Z,2.70
2018-05-07T07:47:25.567Z,2.70
2018-05-07T07:49:53.858Z,2.20
2018-05-07T07:52:22.207Z,2.10
2018-05-07T07:54:50.480Z,2.43
2018-05-07T07:57:18.791Z,2.10
2018-05-07T07:59:47.093Z,2.67
2018-05-07T08:02:16.161Z,1.93
2018-05-07T08:04:44.445Z,1.90
2018-05-07T08:07:12.753Z,2.33
2018-05-07T08:09:41.050Z,2.90
2018-05-07T08:12:09.381Z,2.67
2018-05-07T08:14:37.669Z,2.07
2018-05-07T08:17:06.742Z,2.37
2018-05-07T08:19:35.039Z,2.30
2018-05-07T08:22:04.118Z,2.90
2018-05-07T08:24:32.469Z,2.47
2018-05-07T08:27:00.793Z,2.30
2018-05-07T08:29:29.856Z,2.37
2018-05-07T08:31:58.163Z,2.50
2018-05-07T08:34:27.217Z,2.03
2018-05-07T08:36:55.535Z,2.40
2018-05-07T08:39:24.610Z,2.10
2018-05-07T08:41:52.910Z,2.17
2018-05-07T08:44:21.979Z,2.20
2018-05-07T08:46:50.271Z,2.30
2018-05-07T08:49:18.579Z,2.90
2018-05-07T08:51:46.898Z,2.47
2018-05-07T08:54:15.182Z,2.53
2018-05-07T08:56:43.514Z,1.87
2018-05-07T08:59:11.801Z,2.20
2018-05-07T09:01:40.092Z,2.20
2018-05-07T09:04:08.403Z,2.00
2018-05-07T09:06:36.689Z,2.00
2018-05-07T09:09:05.901Z,2.30
2018-05-07T09:11:34.955Z,2.27
2018-05-07T09:14:03.257Z,2.20
2018-05-07T09:16:32.316Z,2.20
2018-05-07T09:19:00.625Z,2.37
2018-05-07T09:21:28.913Z,2.57
2018-05-07T09:23:57.231Z,2.23
2018-05-07T09:26:25.517Z,2.30
2018-05-07T09:28:53.824Z,1.87
2018-05-07T09:31:22.135Z,2.03
2018-05-07T09:33:51.208Z,2.17
2018-05-07T09:36:19.485Z,1.90
2018-05-07T09:38:48.587Z,1.70
2018-05-07T09:41:16.874Z,1.60
2018-05-07T09:43:45.950Z,2.33
2018-05-07T09:46:14.239Z,2.13
2018-05-07T09:48:42.549Z,2.23
2018-05-07T09:51:10.858Z,1.50
2018-05-07T09:53:39.179Z,2.50
2018-05-07T09:56:08.234Z,1.87
2018-05-07T09:58:36.543Z,1.90
2018-05-07T10:01:04.825Z,1.60
2018-05-07T10:03:33.927Z,1.53
2018-05-07T10:06:02.986Z,1.53
2018-05-07T10:08:31.273Z,1.90
2018-05-07T10:10:59.591Z,1.63
2018-05-07T10:13:27.881Z,2.23
2018-05-07T10:15:56.188Z,1.33
2018-05-07T10:18:24.475Z,1.30
2018-05-07T10:20:52.788Z,1.43
2018-05-07T10:23:21.843Z,1.60
2018-05-07T10:25:50.156Z,2.00
2018-05-07T10:28:19.209Z,1.77
2018-05-07T10:30:47.526Z,1.63
2018-05-07T10:33:16.583Z,1.50
2018-05-07T10:35:44.901Z,1.97
2018-05-07T10:38:13.954Z,1.70
2018-05-07T10:40:42.282Z,1.37
2018-05-07T10:43:11.342Z,1.40
2018-05-07T10:45:39.624Z,1.83
2018-05-07T10:48:07.946Z,1.50
2018-05-07T10:50:36.237Z,1.60
2018-05-07T10:53:04.541Z,1.60
2018-05-07T10:55:32.841Z,1.80
2018-05-07T10:58:01.154Z,1.53
2018-05-07T11:00:29.446Z,2.00
2018-05-07T11:02:57.744Z,1.63
2018-05-07T11:05:26.036Z,1.63
2018-05-07T11:07:54.359Z,1.80
2018-05-07T11:10:22.644Z,1.60
2018-05-07T11:12:50.940Z,1.73
2018-05-07T11:15:19.228Z,1.17
2018-05-07T11:17:48.309Z,1.83
2018-05-07T11:20:16.594Z,1.57
2018-05-07T11:22:44.930Z,1.40
2018-05-07T11:25:13.989Z,1.57
2018-05-07T11:27:42.271Z,1.93
2018-05-07T11:30:10.590Z,2.00
2018-05-07T11:32:38.884Z,2.60
2018-05-07T11:35:07.194Z,2.40
2018-05-07T11:37:35.490Z,1.53
2018-05-07T11:40:04.575Z,1.53
2018-05-07T11:42:32.856Z,1.60
2018-05-07T11:45:01.201Z,1.50
2018-05-07T11:47:29.553Z,1.60
2018-05-07T11:49:57.831Z,1.63
2018-05-07T11:52:26.130Z,1.73
2018-05-07T11:54:55.199Z,2.13
2018-05-07T11:57:23.496Z,2.20
2018-05-07T11:59:51.805Z,1.47
2018-05-07T12:02:20.117Z,1.47
2018-05-07T12:04:49.203Z,1.63
2018-05-07T12:07:18.273Z,1.20
2018-05-07T12:09:46.575Z,1.50
2018-05-07T12:12:14.891Z,1.57
2018-05-07T12:14:43.173Z,1.20
2018-05-07T12:17:11.489Z,1.60
2018-05-07T12:19:39.789Z,1.67
2018-05-07T12:22:08.875Z,1.10
2018-05-07T12:24:37.177Z,1.47
2018-05-07T12:27:06.268Z,1.30
2018-05-07T12:29:35.324Z,1.57
2018-05-07T12:32:03.638Z,1.40
2018-05-07T12:34:32.693Z,1.40
2018-05-07T12:37:01.016Z,1.60
2018-05-07T12:39:30.092Z,1.43
2018-05-07T12:41:58.401Z,1.47
2018-05-07T12:44:26.701Z,1.33
2018-05-07T12:46:55.017Z,1.03
2018-05-07T12:49:23.305Z,1.50
2018-05-07T12:51:52.387Z,1.40
2018-05-07T12:54:20.678Z,1.23
2018-05-07T12:56:49.769Z,1.23
2018-05-07T12:59:18.075Z,1.30
2018-05-07T13:01:46.353Z,1.47
2018-05-07T13:04:14.744Z,1.73
2018-05-07T13:06:43.030Z,1.70
2018-05-07T13:09:11.340Z,1.60
2018-05-07T13:11:39.643Z,1.60
2018-05-07T13:14:07.963Z,1.30
2018-05-07T13:16:36.254Z,1.60
2018-05-07T13:19:04.580Z,1.47
2018-05-07T13:21:32.877Z,1.73
2018-05-07T13:24:01.190Z,1.53
2018-05-07T13:26:29.509Z,1.30
2018-05-07T13:28:58.595Z,1.30
2018-05-07T13:31:26.887Z,1.33
2018-05-07T13:33:55.970Z,1.00
2018-05-07T13:36:24.250Z,1.37
2018-05-07T13:38:53.317Z,1.33
2018-05-07T13:41:21.611Z,1.40
2018-05-07T13:43:50.101Z,1.70
2018-05-07T13:46:19.177Z,1.30
2018-05-07T13:48:47.491Z,1.33
2018-05-07T13:51:16.585Z,1.30
2018-05-07T13:53:45.636Z,1.30
2018-05-07T13:56:13.936Z,1.07
2018-05-07T13:58:42.992Z,1.20
2018-05-07T14:01:11.296Z,2.03
2018-05-07T14:03:39.591Z,1.30
2018-05-07T14:06:07.903Z,1.20
2018-05-07T14:08:36.256Z,1.37
2018-05-07T14:11:08.275Z,1.10
2018-05-07T14:13:36.568Z,1.07
2018-05-07T14:16:04.867Z,1.50
2018-05-07T14:18:55.069Z,1.43
2018-05-07T14:21:24.137Z,1.30
2018-05-07T14:23:52.425Z,1.33
2018-05-07T14:26:20.802Z,1.33
2018-05-07T14:28:49.046Z,1.20
2018-05-07T14:31:19.286Z,1.40
2018-05-07T14:33:47.584Z,1.20
2018-05-07T14:36:15.904Z,1.20
2018-05-07T14:38:44.236Z,1.40
2018-05-07T14:41:16.444Z,1.70
2018-05-07T14:43:44.736Z,1.73
2018-05-07T14:46:13.042Z,1.50
2018-05-07T14:48:41.321Z,1.60
2018-05-07T14:51:09.606Z,1.27
2018-05-07T14:53:37.974Z,1.40
2018-05-07T14:56:06.260Z,1.30
2018-05-07T14:58:34.590Z,1.20
2018-05-07T15:01:02.886Z,1.13
2018-05-07T15:03:31.193Z,1.10
2018-05-07T15:06:00.245Z,1.40
2018-05-07T15:08:28.559Z,1.63
2018-05-07T15:10:56.867Z,1.43
2018-05-07T15:13:25.946Z,1.60
2018-05-07T15:15:54.234Z,1.07
2018-05-07T15:18:22.549Z,1.20
2018-05-07T15:20:50.842Z,1.30
2018-05-07T15:23:19.183Z,1.13
2018-05-07T15:25:47.475Z,0.90
2018-05-07T15:28:15.761Z,1.60
2018-05-07T15:30:44.088Z,1.30
2018-05-07T15:33:12.370Z,1.30
2018-05-07T15:35:41.462Z,1.27
2018-05-07T15:38:10.514Z,1.77
2018-05-07T15:40:38.822Z,2.50
2018-05-07T15:43:07.114Z,3.43
2018-05-07T15:45:36.312Z,2.00
2018-05-07T15:48:05.374Z,1.40
2018-05-07T15:50:33.696Z,1.30
2018-05-07T15:53:02.749Z,1.13
2018-05-07T15:55:31.052Z,1.50
2018-05-07T15:57:59.345Z,2.93
2018-05-07T16:00:28.425Z,1.20
2018-05-07T16:02:57.532Z,1.30
2018-05-07T16:05:25.834Z,1.40
2018-05-07T16:07:54.144Z,1.20
2018-05-07T16:10:22.474Z,1.27
2018-05-07T16:12:51.521Z,1.67
2018-05-07T16:15:19.895Z,1.53
2018-05-07T16:17:48.152Z,1.50
2018-05-07T16:20:16.473Z,1.50
2018-05-07T16:22:44.802Z,1.33
2018-05-07T16:25:13.095Z,1.80
2018-05-07T16:27:41.405Z,1.57
2018-05-07T16:30:09.698Z,1.67
2018-05-07T16:32:38.795Z,1.20
2018-05-07T16:35:07.855Z,1.77
2018-05-07T16:37:36.185Z,1.30
2018-05-07T16:40:04.483Z,1.43
2018-05-07T16:42:32.793Z,1.53
2018-05-07T16:45:01.142Z,1.83
2018-05-07T16:47:43.008Z,1.47
2018-05-07T16:50:12.070Z,1.20
2018-05-07T16:52:40.386Z,1.40
2018-05-07T16:55:10.593Z,1.23
2018-05-07T16:57:39.701Z,1.07
2018-05-07T17:00:08.045Z,1.10
2018-05-07T17:02:36.347Z,1.87
2018-05-07T17:05:05.413Z,1.60
2018-05-07T17:07:33.738Z,1.30
2018-05-07T17:10:02.938Z,1.53
2018-05-07T17:12:31.234Z,1.27
2018-05-07T17:15:02.681Z,1.40
2018-05-07T17:17:31.733Z,1.40
2018-05-07T17:20:00.815Z,1.30
2018-05-07T17:22:29.105Z,1.10
2018-05-07T17:24:57.418Z,1.33
2018-05-07T17:27:25.723Z,0.90
2018-05-07T17:29:54.038Z,1.40
2018-05-07T17:32:23.119Z,1.13
2018-05-07T17:34:51.439Z,1.40
2018-05-07T17:37:19.735Z,1.10
2018-05-07T17:39:48.052Z,1.40
2018-05-07T17:42:16.333Z,1.10
2018-05-07T17:44:56.449Z,1.80
2018-05-07T17:47:36.522Z,1.57
2018-05-07T17:50:04.851Z,1.73
2018-05-07T17:52:33.902Z,2.00
2018-05-07T17:55:02.205Z,1.23
2018-05-07T17:57:30.508Z,1.40
2018-05-07T17:59:58.859Z,1.30
2018-05-07T18:02:27.133Z,1.20
2018-05-07T18:04:56.226Z,1.20
2018-05-07T18:07:24.509Z,1.00
2018-05-07T18:09:52.931Z,1.23
2018-05-07T18:12:21.326Z,1.10
2018-05-07T18:14:49.648Z,1.00
2018-05-07T18:17:17.957Z,1.40
2018-05-07T18:19:46.244Z,1.60
2018-05-07T18:22:14.563Z,1.20
2018-05-07T18:24:42.862Z,1.43
2018-05-07T18:27:11.182Z,1.17
2018-05-07T18:29:39.478Z,1.33
2018-05-07T18:32:07.812Z,1.40
2018-05-07T18:34:36.098Z,1.30
2018-05-07T18:37:04.409Z,1.07
2018-05-07T18:39:32.714Z,1.30
2018-05-07T18:42:01.038Z,1.80
2018-05-07T18:44:29.391Z,1.40
2018-05-07T18:46:58.458Z,1.40
2018-05-07T18:49:26.879Z,1.30
2018-05-07T18:51:55.283Z,2.00
2018-05-07T18:54:23.595Z,1.90
2018-05-07T18:56:51.931Z,1.63
2018-05-07T18:59:20.221Z,1.83
2018-05-07T19:01:48.514Z,1.20
2018-05-07T19:04:16.824Z,1.83
2018-05-07T19:06:45.891Z,1.77
2018-05-07T19:09:14.215Z,1.30
2018-05-07T19:11:42.539Z,1.77
2018-05-07T19:14:10.850Z,1.60
2018-05-07T19:16:39.920Z,1.60
2018-05-07T19:19:08.235Z,1.47
2018-05-07T19:21:37.288Z,1.43
2018-05-07T19:24:05.600Z,1.37
2018-05-07T19:26:34.656Z,1.60
2018-05-07T19:29:02.975Z,1.57
2018-05-07T19:31:32.116Z,2.10
2018-05-07T19:34:00.375Z,1.67
2018-05-07T19:36:29.439Z,1.80
2018-05-07T19:38:58.530Z,1.90
2018-05-07T19:41:26.825Z,2.17
2018-05-07T19:43:55.141Z,2.10
2018-05-07T19:46:23.437Z,1.60
2018-05-07T19:48:51.745Z,2.13
2018-05-07T19:51:20.796Z,1.70
2018-05-07T19:53:49.137Z,1.67
2018-05-07T19:56:17.441Z,1.73
2018-05-07T19:58:45.737Z,1.57
2018-05-07T20:01:14.046Z,1.90
2018-05-07T20:03:43.119Z,2.23
2018-05-07T20:06:11.438Z,2.03
2018-05-07T20:08:40.495Z,1.70
2018-05-07T20:11:08.813Z,2.20
2018-05-07T20:13:38.045Z,1.90
2018-05-07T20:16:06.359Z,1.67
2018-05-07T20:18:34.666Z,2.30
2018-05-07T20:21:02.976Z,2.13
2018-05-07T20:23:31.269Z,2.27
2018-05-07T20:25:59.579Z,2.30
2018-05-07T20:28:27.880Z,2.13
2018-05-07T20:30:56.189Z,2.20
2018-05-07T20:33:24.487Z,2.60
2018-05-07T20:35:52.811Z,2.00
2018-05-07T20:38:21.102Z,2.50
2018-05-07T20:40:49.418Z,2.00
2018-05-07T20:43:17.719Z,2.23
2018-05-07T20:45:46.798Z,2.30
2018-05-07T20:48:15.232Z,2.30
2018-05-07T20:50:43.447Z,1.70
2018-05-07T20:53:11.731Z,2.17
2018-05-07T20:55:40.041Z,2.20
2018-05-07T20:58:09.198Z,1.80
2018-05-07T21:00:37.490Z,2.00
2018-05-07T21:03:05.819Z,2.50
2018-05-07T21:05:34.114Z,1.70
2018-05-07T21:08:02.456Z,2.37
2018-05-07T21:10:30.742Z,2.40
2018-05-07T21:12:59.042Z,2.27
2018-05-07T21:15:27.335Z,2.23
2018-05-07T21:17:55.643Z,1.73
2018-05-07T21:20:24.689Z,2.30
2018-05-07T21:22:53.006Z,1.73
2018-05-07T21:25:21.306Z,2.40
2018-05-07T21:27:49.623Z,2.60
2018-05-07T21:30:17.918Z,2.13
2018-05-07T21:32:46.226Z,2.10
2018-05-07T21:35:14.517Z,1.93
2018-05-07T21:37:43.600Z,2.17
2018-05-07T21:40:12.661Z,2.30
2018-05-07T21:42:40.961Z,2.50
2018-05-07T21:45:10.042Z,2.07
2018-05-07T21:47:38.359Z,1.70
2018-05-07T21:50:11.704Z,2.33
2018-05-07T21:52:39.993Z,2.07
2018-05-07T21:55:08.318Z,2.10
2018-05-07T21:57:36.602Z,2.40
2018-05-07T22:00:04.947Z,2.47
2018-05-07T22:02:33.235Z,3.10
2018-05-07T22:05:02.314Z,2.67
2018-05-07T22:07:30.596Z,2.53
2018-05-07T22:09:59.674Z,1.80
2018-05-07T22:12:28.080Z,2.10
2018-05-07T22:14:56.297Z,2.20
2018-05-07T22:17:24.594Z,2.87
2018-05-07T22:19:52.923Z,3.17
2018-05-07T22:22:21.974Z,2.77
2018-05-07T22:24:50.280Z,2.63
2018-05-07T22:27:19.325Z,2.63
2018-05-07T22:29:47.647Z,2.50
2018-05-07T22:32:16.703Z,2.03
2018-05-07T22:34:45.021Z,2.40
2018-05-07T22:37:13.314Z,2.97
2018-05-07T22:39:41.611Z,2.40
2018-05-07T22:42:09.927Z,2.40
2018-05-07T22:44:38.213Z,2.37
2018-05-07T22:47:06.522Z,2.67
2018-05-07T22:49:34.820Z,2.40
2018-05-07T22:52:03.221Z,3.20
2018-05-07T22:54:31.434Z,2.50
2018-05-07T22:57:00.507Z,3.10
2018-05-07T22:59:29.552Z,2.77
2018-05-07T23:01:57.868Z,2.77
2018-05-07T23:04:26.163Z,2.87
2018-05-07T23:06:54.482Z,3.20
2018-05-07T23:09:22.777Z,2.70
2018-05-07T23:11:51.100Z,3.50
2018-05-07T23:14:20.174Z,3.00
2018-05-07T23:16:48.485Z,2.93
2018-05-07T23:19:17.532Z,3.53
2018-05-07T23:21:45.853Z,2.40
2018-05-07T23:24:14.140Z,2.60
2018-05-07T23:26:43.213Z,3.47
2018-05-07T23:29:11.502Z,2.60
2018-05-07T23:31:39.814Z,2.80
2018-05-07T23:34:08.094Z,3.00
2018-05-07T23:36:36.438Z,3.50
2018-05-07T23:39:05.495Z,3.00
2018-05-07T23:41:33.796Z,2.63
2018-05-07T23:44:02.105Z,2.87
2018-05-07T23:46:30.409Z,3.07
2018-05-07T23:48:58.718Z,2.53
2018-05-07T23:51:27.789Z,3.20
2018-05-07T23:53:56.106Z,2.70
2018-05-07T23:56:24.390Z,3.13
2018-05-07T23:58:52.693Z,3.00
